X  Zatvori METAR Podaci o vazduhoplovstvu        LYNI Nis Airport
Temperatura
59°F Temperatura
43°F Tačka Rose
55% Vlaga



Vetar
13 MPH
20 KM/H
6 M/S
11 KTS



320°
SZ
Trenutna situacija

Partly Cloudy Delimično Oblačno
Vazdušni pritisak 1009 (hPa) - 29.79 (inHg)
Vidljivost 6 (Milja) - 10 (km)
Aerodrom
Aerodromski kod. LYNI

Lokacija: Nis Airport
Udaljenost: 63 (mi)

Metar:
METAR LYNI 051300Z 32011KT 290V010 9999 SCT037 15/06 Q1009 NOSIG

Vreme: 05-03-2024 14:00 CET